Time;durP1;ratioP1;P1;durP2;ratioP2;P2;SDS_P1;SDS_P2;PMS_P1;PMS_P2;Temp;Humidity;BMP_temperature;BMP_pressure;BME280_temperature;BME280_humidity;BME280_pressure;Samples;Min_cycle;Max_cycle;Signal;HPM_P1;HPM_P2
2021/03/17 00:02:20;;;;;;;4.72;2.55;;;;;;;;;;5095544;28;20358;-55
2021/03/17 00:04:45;;;;;;;7.65;2.90;;;;;;;;;;5096030;28;20024;-55
2021/03/17 00:07:12;;;;;;;7.57;2.67;;;;;;;;;;5095281;28;20153;-54
2021/03/17 00:09:38;;;;;;;3.80;2.42;;;;;;;;;;5095615;28;20031;-55
2021/03/17 00:12:04;;;;;;;5.05;2.70;;;;;;;;;;5095529;28;20160;-55
2021/03/17 00:14:30;;;;;;;5.32;2.33;;;;;;;;;;5095374;28;20373;-55
2021/03/17 00:16:56;;;;;;;5.07;2.72;;;;;;;;;;5094994;28;20028;-55
2021/03/17 00:19:22;;;;;;;4.60;2.72;;;;;;;;;;5095615;28;20020;-55
2021/03/17 00:21:48;;;;;;;4.18;2.42;;;;;;;;;;5095289;28;20024;-55
2021/03/17 00:24:14;;;;;;;3.47;2.15;;;;;;;;;;5095312;28;20476;-55
2021/03/17 00:26:40;;;;;;;6.35;3.08;;;;;;;;;;5094131;28;20032;-55
2021/03/17 00:29:06;;;;;;;5.97;2.50;;;;;;;;;;5094822;28;20020;-55
2021/03/17 00:31:32;;;;;;;4.20;2.33;;;;;;;;;;5095266;28;20031;-54
2021/03/17 00:33:58;;;;;;;4.38;2.53;;;;;;;;;;5095153;28;20445;-54
2021/03/17 00:36:24;;;;;;;4.13;2.28;;;;;;;;;;5095175;28;20031;-55
2021/03/17 00:38:50;;;;;;;3.83;2.13;;;;;;;;;;5094633;28;20577;-55
2021/03/17 00:41:16;;;;;;;5.75;2.95;;;;;;;;;;5095068;28;20291;-54
2021/03/17 00:43:42;;;;;;;5.35;2.30;;;;;;;;;;5094657;28;20040;-55
2021/03/17 00:46:08;;;;;;;4.20;2.72;;;;;;;;;;5094961;28;20016;-55
2021/03/17 00:48:34;;;;;;;4.57;2.75;;;;;;;;;;5094532;28;20074;-55
2021/03/17 00:51:00;;;;;;;6.15;2.40;;;;;;;;;;5094829;28;20122;-54
2021/03/17 00:53:26;;;;;;;5.25;2.83;;;;;;;;;;5094689;28;20095;-55
2021/03/17 00:55:52;;;;;;;8.30;3.33;;;;;;;;;;5094643;28;20437;-55
2021/03/17 00:58:18;;;;;;;3.22;2.45;;;;;;;;;;5094107;28;20030;-55
2021/03/17 01:00:44;;;;;;;8.90;3.72;;;;;;;;;;5094738;28;20035;-55
2021/03/17 01:03:10;;;;;;;6.78;3.35;;;;;;;;;;5094211;28;20411;-55
2021/03/17 01:05:36;;;;;;;5.63;2.72;;;;;;;;;;5094538;28;20021;-55
2021/03/17 01:08:02;;;;;;;4.97;2.72;;;;;;;;;;5094162;28;20078;-54
2021/03/17 01:10:32;;;;;;;11.25;3.05;;;;;;;;;;5094376;28;20024;-55
2021/03/17 01:12:58;;;;;;;27.50;5.97;;;;;;;;;;5094308;28;20028;-55
2021/03/17 01:15:25;;;;;;;19.88;5.35;;;;;;;;;;5094719;28;20055;-55
2021/03/17 01:17:51;;;;;;;21.30;4.25;;;;;;;;;;5093908;28;20465;-55
2021/03/17 01:20:17;;;;;;;15.00;4.30;;;;;;;;;;5094258;28;20047;-55
2021/03/17 01:22:44;;;;;;;14.55;4.18;;;;;;;;;;5093925;28;20472;-55
2021/03/17 01:25:11;;;;;;;13.52;4.38;;;;;;;;;;5093977;28;20146;-55
2021/03/17 01:27:37;;;;;;;15.13;4.22;;;;;;;;;;5093988;28;20118;-55
2021/03/17 01:30:04;;;;;;;15.05;4.00;;;;;;;;;;5092733;28;20431;-54
2021/03/17 01:32:30;;;;;;;12.02;4.25;;;;;;;;;;5094058;28;20427;-54
2021/03/17 01:34:56;;;;;;;7.72;3.72;;;;;;;;;;5093879;28;20472;-55
2021/03/17 01:37:22;;;;;;;12.57;3.78;;;;;;;;;;5094046;28;20088;-55
2021/03/17 01:39:48;;;;;;;8.18;2.83;;;;;;;;;;5093771;28;20100;-54
2021/03/17 01:42:14;;;;;;;7.57;3.13;;;;;;;;;;5093663;28;20086;-55
2021/03/17 01:44:40;;;;;;;7.18;2.97;;;;;;;;;;5093844;28;20474;-55
2021/03/17 01:47:06;;;;;;;4.70;2.47;;;;;;;;;;5093599;28;20028;-54
2021/03/17 01:49:32;;;;;;;7.75;3.17;;;;;;;;;;5093825;28;20468;-55
2021/03/17 01:51:58;;;;;;;4.97;3.00;;;;;;;;;;5093623;28;20034;-55
2021/03/17 01:54:24;;;;;;;4.57;2.92;;;;;;;;;;5093366;28;20024;-55
2021/03/17 01:56:51;;;;;;;4.07;2.53;;;;;;;;;;5093652;28;20016;-55
2021/03/17 01:59:17;;;;;;;4.90;2.63;;;;;;;;;;5093438;28;20020;-54
2021/03/17 02:01:43;;;;;;;6.60;2.53;;;;;;;;;;5093398;28;20032;-54
2021/03/17 02:04:09;;;;;;;4.35;2.40;;;;;;;;;;5093525;28;20504;-55
2021/03/17 02:06:35;;;;;;;6.55;2.47;;;;;;;;;;5093451;28;20036;-55
2021/03/17 02:09:02;;;;;;;5.85;2.80;;;;;;;;;;5092799;28;20120;-54
2021/03/17 02:11:28;;;;;;;4.72;2.58;;;;;;;;;;5093516;28;20449;-54
2021/03/17 02:13:54;;;;;;;4.60;2.75;;;;;;;;;;5092908;28;20020;-55
2021/03/17 02:16:27;;;;;;;4.18;2.80;;;;;;;;;;5093140;28;20036;-54
2021/03/17 02:19:22;;;;;;;6.40;3.10;;;;;;;;;;5092886;28;20494;-55
2021/03/17 02:22:17;;;;;;;5.68;3.20;;;;;;;;;;5091799;28;20039;-55
2021/03/17 02:24:46;;;;;;;4.30;2.40;;;;;;;;;;5093192;28;20096;-54
2021/03/17 02:27:31;;;;;;;6.85;2.75;;;;;;;;;;5092885;28;20028;-55
2021/03/17 02:30:15;;;;;;;4.18;2.80;;;;;;;;;;5093095;28;20115;-55
2021/03/17 02:32:44;;;;;;;2.72;2.40;;;;;;;;;;5093396;28;20020;-54
2021/03/17 02:35:11;;;;;;;3.58;2.80;;;;;;;;;;5093212;28;20035;-55
2021/03/17 02:37:38;;;;;;;4.88;2.33;;;;;;;;;;5093141;28;20029;-55
2021/03/17 02:40:04;;;;;;;5.63;2.58;;;;;;;;;;5093020;28;20028;-54
2021/03/17 02:42:32;;;;;;;6.85;2.55;;;;;;;;;;5092520;28;20051;-55
2021/03/17 02:45:08;;;;;;;3.95;2.50;;;;;;;;;;5092461;28;20030;-54
2021/03/17 02:47:37;;;;;;;5.90;3.15;;;;;;;;;;5093016;28;20024;-55
2021/03/17 02:50:04;;;;;;;3.60;2.50;;;;;;;;;;5093081;28;20036;-55
2021/03/17 02:52:31;;;;;;;5.85;3.10;;;;;;;;;;5093113;28;20032;-54
2021/03/17 02:54:57;;;;;;;6.55;3.30;;;;;;;;;;5092597;28;20028;-54
2021/03/17 02:57:25;;;;;;;6.32;3.03;;;;;;;;;;5092905;28;20115;-54
2021/03/17 02:59:52;;;;;;;5.78;3.33;;;;;;;;;;5093019;28;20065;-55
2021/03/17 03:02:20;;;;;;;5.95;3.00;;;;;;;;;;5092924;28;20032;-55
2021/03/17 03:04:46;;;;;;;5.70;2.83;;;;;;;;;;5092768;28;20020;-55
2021/03/17 03:07:13;;;;;;;5.50;2.90;;;;;;;;;;5092461;28;20032;-55
2021/03/17 03:09:39;;;;;;;7.45;2.83;;;;;;;;;;5092751;28;20036;-55
2021/03/17 03:12:06;;;;;;;4.93;2.97;;;;;;;;;;5092777;28;20075;-55
2021/03/17 03:14:32;;;;;;;6.13;2.67;;;;;;;;;;5092812;28;20046;-55
2021/03/17 03:17:00;;;;;;;3.90;2.28;;;;;;;;;;5092684;28;20016;-55
2021/03/17 03:19:28;;;;;;;4.20;2.42;;;;;;;;;;5092622;28;20357;-55
2021/03/17 03:21:54;;;;;;;6.38;2.42;;;;;;;;;;5092346;28;20035;-56
2021/03/17 03:24:22;;;;;;;4.78;2.33;;;;;;;;;;5092697;28;20031;-55
2021/03/17 03:26:56;;;;;;;9.15;3.25;;;;;;;;;;5095250;28;20449;-55
2021/03/17 03:29:22;;;;;;;4.07;2.47;;;;;;;;;;5091612;28;20107;-55
2021/03/17 03:31:48;;;;;;;5.57;2.83;;;;;;;;;;5095528;28;20020;-55
2021/03/17 03:34:15;;;;;;;5.32;2.60;;;;;;;;;;5096437;28;20027;-55
2021/03/17 03:36:41;;;;;;;4.35;2.58;;;;;;;;;;5096388;28;20074;-55
2021/03/17 03:39:07;;;;;;;5.10;3.50;;;;;;;;;;5096073;28;20024;-55
2021/03/17 03:41:33;;;;;;;5.38;3.05;;;;;;;;;;5095663;28;20042;-55
2021/03/17 03:43:59;;;;;;;5.03;3.13;;;;;;;;;;5096138;28;20103;-56
2021/03/17 03:46:25;;;;;;;5.22;2.80;;;;;;;;;;5096445;28;20107;-55
2021/03/17 03:48:51;;;;;;;9.82;3.20;;;;;;;;;;5094571;28;20055;-55
2021/03/17 03:51:18;;;;;;;7.15;3.38;;;;;;;;;;5095745;28;20104;-55
2021/03/17 03:53:47;;;;;;;5.40;3.63;;;;;;;;;;5096096;28;20111;-55
2021/03/17 03:56:25;;;;;;;9.63;3.75;;;;;;;;;;5095750;28;20024;-55
2021/03/17 03:58:56;;;;;;;6.85;4.13;;;;;;;;;;5095586;28;20452;-55
2021/03/17 04:01:25;;;;;;;7.93;4.53;;;;;;;;;;5095522;28;20479;-55
2021/03/17 04:03:56;;;;;;;8.38;3.20;;;;;;;;;;5095786;28;20030;-55
2021/03/17 04:06:22;;;;;;;9.10;3.67;;;;;;;;;;5108690;28;20030;-55
2021/03/17 04:08:49;;;;;;;8.52;4.13;;;;;;;;;;5115696;28;20051;-55
2021/03/17 04:11:16;;;;;;;5.18;3.55;;;;;;;;;;5115786;28;20080;-55
2021/03/17 04:13:43;;;;;;;7.43;3.42;;;;;;;;;;5116249;28;20357;-55
2021/03/17 04:16:10;;;;;;;7.22;3.58;;;;;;;;;;5116013;28;20466;-55
2021/03/17 04:18:42;;;;;;;6.53;3.50;;;;;;;;;;5115595;28;20038;-55
2021/03/17 04:21:19;;;;;;;5.47;3.58;;;;;;;;;;5115700;28;20035;-55
2021/03/17 04:23:46;;;;;;;6.63;3.22;;;;;;;;;;5115697;28;20437;-55
2021/03/17 04:26:12;;;;;;;6.53;3.60;;;;;;;;;;5115472;28;20024;-55
2021/03/17 04:28:40;;;;;;;7.25;3.47;;;;;;;;;;5113652;28;20157;-55
2021/03/17 04:31:06;;;;;;;6.15;3.72;;;;;;;;;;5095211;28;20043;-55
2021/03/17 04:33:33;;;;;;;6.93;3.78;;;;;;;;;;5095192;28;20114;-55
2021/03/17 04:36:00;;;;;;;8.63;3.40;;;;;;;;;;5094815;28;20031;-55
2021/03/17 04:38:27;;;;;;;6.32;3.00;;;;;;;;;;5093920;28;20089;-55
2021/03/17 04:40:54;;;;;;;4.22;2.47;;;;;;;;;;5098849;28;20034;-55
2021/03/17 04:43:21;;;;;;;6.22;2.20;;;;;;;;;;5115221;28;20062;-55
2021/03/17 04:45:47;;;;;;;2.65;2.00;;;;;;;;;;5115288;28;20043;-55
2021/03/17 04:48:14;;;;;;;5.05;2.60;;;;;;;;;;5115130;28;20457;-55
2021/03/17 04:50:41;;;;;;;3.78;2.25;;;;;;;;;;5114734;28;20448;-55
2021/03/17 04:53:10;;;;;;;4.00;2.03;;;;;;;;;;5113963;28;20038;-55
2021/03/17 04:55:36;;;;;;;3.53;2.22;;;;;;;;;;5115005;28;20059;-55
2021/03/17 04:58:03;;;;;;;6.00;2.15;;;;;;;;;;5114836;28;20028;-55
2021/03/17 05:00:29;;;;;;;4.03;2.65;;;;;;;;;;5114897;28;20016;-55
2021/03/17 05:02:56;;;;;;;3.03;2.20;;;;;;;;;;5114916;28;20031;-55
2021/03/17 05:05:23;;;;;;;6.25;3.30;;;;;;;;;;5114735;28;20349;-55
2021/03/17 05:07:50;;;;;;;4.75;3.25;;;;;;;;;;5114454;28;20027;-55
2021/03/17 05:10:16;;;;;;;4.82;3.53;;;;;;;;;;5115084;28;20306;-55
2021/03/17 05:12:42;;;;;;;6.35;3.38;;;;;;;;;;5114714;28;20074;-55
2021/03/17 05:15:09;;;;;;;6.90;3.92;;;;;;;;;;5114826;28;20023;-55
2021/03/17 05:17:36;;;;;;;10.20;4.18;;;;;;;;;;5114229;28;20026;-55
2021/03/17 05:20:09;;;;;;;6.47;3.08;;;;;;;;;;5114928;28;20124;-55
2021/03/17 05:22:36;;;;;;;6.32;3.83;;;;;;;;;;5114631;28;20110;-55
2021/03/17 05:25:05;;;;;;;10.18;4.47;;;;;;;;;;5110173;28;20104;-55
2021/03/17 05:27:32;;;;;;;6.32;4.03;;;;;;;;;;5103466;28;20039;-55
2021/03/17 05:29:58;;;;;;;7.78;4.05;;;;;;;;;;5095090;28;20027;-55
2021/03/17 05:32:25;;;;;;;11.30;4.40;;;;;;;;;;5093584;28;20425;-55
2021/03/17 05:34:59;;;;;;;10.93;5.03;;;;;;;;;;5092297;28;20020;-55
2021/03/17 05:37:26;;;;;;;11.32;4.45;;;;;;;;;;5092051;28;20028;-55
2021/03/17 05:39:52;;;;;;;10.35;4.88;;;;;;;;;;5076211;28;20344;-55
2021/03/17 05:42:18;;;;;;;8.77;4.70;;;;;;;;;;5103721;28;20040;-55
2021/03/17 05:44:44;;;;;;;10.68;4.50;;;;;;;;;;5113912;28;20429;-55
2021/03/17 05:47:11;;;;;;;10.60;4.43;;;;;;;;;;5113866;28;20551;-55
2021/03/17 05:49:38;;;;;;;10.18;4.30;;;;;;;;;;5114016;28;20019;-55
2021/03/17 05:52:05;;;;;;;9.43;5.45;;;;;;;;;;5114221;28;20034;-55
2021/03/17 05:54:31;;;;;;;13.30;4.95;;;;;;;;;;5114473;28;20648;-55
2021/03/17 05:56:57;;;;;;;12.55;5.15;;;;;;;;;;5113833;28;20099;-55
2021/03/17 05:59:23;;;;;;;9.63;5.18;;;;;;;;;;5112996;28;20093;-55
2021/03/17 06:01:50;;;;;;;9.82;4.88;;;;;;;;;;5113613;28;20035;-55
2021/03/17 06:04:17;;;;;;;13.88;6.30;;;;;;;;;;5110620;27;20064;-55
2021/03/17 06:06:43;;;;;;;12.45;6.05;;;;;;;;;;5101623;28;20149;-55
2021/03/17 06:09:10;;;;;;;11.88;5.47;;;;;;;;;;5104758;28;20020;-55
2021/03/17 06:11:36;;;;;;;16.02;6.93;;;;;;;;;;5113636;28;20369;-55
2021/03/17 06:14:04;;;;;;;12.30;5.75;;;;;;;;;;5113487;28;20020;-55
2021/03/17 06:16:30;;;;;;;14.65;5.03;;;;;;;;;;5113849;28;20108;-55
2021/03/17 06:18:58;;;;;;;14.48;5.55;;;;;;;;;;5112353;28;20433;-55
2021/03/17 06:21:24;;;;;;;13.32;5.88;;;;;;;;;;5102771;28;20036;-55
2021/03/17 06:23:56;;;;;;;14.75;6.07;;;;;;;;;;5101841;28;20512;-55
2021/03/17 06:26:22;;;;;;;13.45;5.90;;;;;;;;;;5098361;28;20437;-55
2021/03/17 06:28:48;;;;;;;15.35;6.80;;;;;;;;;;5102987;28;20024;-55
2021/03/17 06:31:15;;;;;;;11.10;6.00;;;;;;;;;;5113873;28;20026;-55
2021/03/17 06:33:41;;;;;;;13.88;5.72;;;;;;;;;;5113511;28;20473;-55
2021/03/17 06:36:11;;;;;;;12.15;5.32;;;;;;;;;;5113660;28;20016;-55
2021/03/17 06:38:37;;;;;;;13.77;6.25;;;;;;;;;;5106918;28;20369;-55
2021/03/17 06:41:03;;;;;;;13.45;6.03;;;;;;;;;;5105379;28;20039;-55
2021/03/17 06:43:37;;;;;;;11.40;5.20;;;;;;;;;;5113267;28;20039;-54
2021/03/17 06:46:04;;;;;;;13.05;5.43;;;;;;;;;;5113446;28;20076;-55
2021/03/17 06:48:32;;;;;;;14.73;6.38;;;;;;;;;;5113061;28;20398;-55
2021/03/17 06:51:12;;;;;;;11.98;6.15;;;;;;;;;;5113524;28;20034;-55
2021/03/17 06:53:41;;;;;;;19.33;7.43;;;;;;;;;;5113156;28;20024;-55
2021/03/17 06:56:31;;;;;;;14.45;5.90;;;;;;;;;;5113701;28;20047;-55
2021/03/17 06:58:58;;;;;;;13.90;6.83;;;;;;;;;;5104028;28;20101;-54
2021/03/17 07:01:28;;;;;;;12.30;6.38;;;;;;;;;;5115356;28;20445;-55
2021/03/17 07:04:13;;;;;;;14.75;7.07;;;;;;;;;;5117041;28;20425;-55
2021/03/17 07:06:40;;;;;;;13.90;6.03;;;;;;;;;;5101625;28;20024;-55
2021/03/17 07:09:17;;;;;;;13.50;6.03;;;;;;;;;;5095604;28;20410;-55
2021/03/17 07:11:44;;;;;;;14.95;5.80;;;;;;;;;;5096901;28;20038;-55
2021/03/17 07:14:10;;;;;;;9.20;5.18;;;;;;;;;;5096620;28;20039;-55
2021/03/17 07:16:46;;;;;;;13.85;5.82;;;;;;;;;;5096486;28;20024;-55
2021/03/17 07:19:28;;;;;;;14.00;5.57;;;;;;;;;;5096308;28;20406;-55
2021/03/17 07:22:02;;;;;;;10.15;5.57;;;;;;;;;;5096548;28;20028;-55
2021/03/17 07:24:28;;;;;;;13.07;5.15;;;;;;;;;;5096663;28;20016;-55
2021/03/17 07:26:54;;;;;;;7.68;4.47;;;;;;;;;;5096233;28;20109;-55
2021/03/17 07:29:20;;;;;;;7.95;4.30;;;;;;;;;;5096280;28;20032;-55
2021/03/17 07:31:49;;;;;;;10.27;5.25;;;;;;;;;;5096449;28;20037;-55
2021/03/17 07:34:20;;;;;;;9.95;5.32;;;;;;;;;;5078070;28;20066;-55
2021/03/17 07:36:46;;;;;;;16.30;5.43;;;;;;;;;;5096373;28;20028;-55
2021/03/17 07:39:34;;;;;;;8.02;4.93;;;;;;;;;;5095837;28;20020;-55
2021/03/17 07:42:01;;;;;;;15.10;5.55;;;;;;;;;;5092483;28;20473;-55
2021/03/17 07:44:27;;;;;;;10.50;5.00;;;;;;;;;;5096270;28;20044;-55
2021/03/17 07:46:57;;;;;;;7.80;4.72;;;;;;;;;;5096244;28;20046;-55
2021/03/17 07:49:27;;;;;;;9.90;4.70;;;;;;;;;;5096012;28;20020;-55
2021/03/17 07:51:53;;;;;;;7.32;3.95;;;;;;;;;;5095717;28;20032;-55
2021/03/17 07:54:22;;;;;;;8.93;4.22;;;;;;;;;;5096170;28;20020;-55
2021/03/17 07:56:49;;;;;;;9.63;4.90;;;;;;;;;;5096026;28;20028;-55
2021/03/17 07:59:16;;;;;;;8.13;4.45;;;;;;;;;;5095811;28;20338;-55
2021/03/17 08:01:42;;;;;;;14.18;5.00;;;;;;;;;;5095818;28;20038;-55
2021/03/17 08:04:08;;;;;;;8.48;4.13;;;;;;;;;;5095794;28;20024;-55
2021/03/17 08:06:34;;;;;;;11.65;4.72;;;;;;;;;;5095422;28;20020;-55
2021/03/17 08:09:00;;;;;;;13.45;5.32;;;;;;;;;;5095433;28;20032;-55
2021/03/17 08:11:27;;;;;;;10.98;4.72;;;;;;;;;;5095469;28;20028;-55
2021/03/17 08:13:54;;;;;;;10.52;5.70;;;;;;;;;;5094508;28;20055;-55
2021/03/17 08:16:21;;;;;;;6.15;4.15;;;;;;;;;;5095523;28;20029;-55
2021/03/17 08:18:48;;;;;;;13.88;5.47;;;;;;;;;;5095158;28;20020;-55
2021/03/17 08:21:14;;;;;;;8.63;4.43;;;;;;;;;;5095317;28;20040;-55
2021/03/17 08:23:42;;;;;;;10.75;5.22;;;;;;;;;;5095584;28;20020;-55
2021/03/17 08:26:10;;;;;;;10.85;4.75;;;;;;;;;;5095560;28;20024;-55
2021/03/17 08:28:47;;;;;;;8.77;5.10;;;;;;;;;;5095212;28;20056;-56
2021/03/17 08:31:33;;;;;;;8.55;5.28;;;;;;;;;;5095223;28;20062;-55
2021/03/17 08:33:59;;;;;;;11.60;4.43;;;;;;;;;;5095036;28;20095;-55
2021/03/17 08:36:40;;;;;;;10.45;5.00;;;;;;;;;;5095371;28;20031;-55
2021/03/17 08:39:06;;;;;;;10.85;5.25;;;;;;;;;;5094665;28;20438;-55
2021/03/17 08:41:46;;;;;;;10.27;5.45;;;;;;;;;;5094948;28;20043;-56
2021/03/17 08:44:22;;;;;;;9.70;5.10;;;;;;;;;;5095355;28;20036;-55
2021/03/17 08:46:48;;;;;;;11.02;5.80;;;;;;;;;;5094687;28;20340;-55
2021/03/17 08:49:15;;;;;;;13.23;5.32;;;;;;;;;;5094297;28;20020;-55
2021/03/17 08:51:47;;;;;;;11.63;5.03;;;;;;;;;;5094844;28;20036;-55
2021/03/17 08:54:45;;;;;;;11.30;5.15;;;;;;;;;;5094931;28;20021;-55
2021/03/17 08:57:12;;;;;;;10.10;5.00;;;;;;;;;;5071732;28;20458;-55
2021/03/17 08:59:42;;;;;;;11.13;5.38;;;;;;;;;;5071831;28;20025;-55
2021/03/17 09:02:26;;;;;;;12.73;5.27;;;;;;;;;;5072051;28;20127;-55
2021/03/17 09:04:58;;;;;;;15.65;4.13;;;;;;;;;;5071225;28;20031;-55
2021/03/17 09:07:25;;;;;;;11.77;4.70;;;;;;;;;;5051774;28;20040;-55
2021/03/17 09:09:52;;;;;;;10.15;4.88;;;;;;;;;;5051762;28;20084;-55
2021/03/17 09:12:28;;;;;;;14.23;5.30;;;;;;;;;;5051746;28;20029;-55
2021/03/17 09:15:12;;;;;;;13.60;4.72;;;;;;;;;;5051729;28;20043;-54
2021/03/17 09:17:47;;;;;;;10.77;5.35;;;;;;;;;;5051587;28;20021;-55
2021/03/17 09:20:13;;;;;;;11.18;5.32;;;;;;;;;;5051578;28;20037;-55
2021/03/17 09:22:39;;;;;;;5.97;3.50;;;;;;;;;;5051436;28;20033;-55
2021/03/17 09:25:21;;;;;;;10.52;4.75;;;;;;;;;;5051186;28;20147;-55
2021/03/17 09:27:52;;;;;;;10.55;5.15;;;;;;;;;;5051412;28;20029;-55
2021/03/17 09:30:19;;;;;;;6.80;4.18;;;;;;;;;;5051157;28;20033;-55
2021/03/17 09:32:46;;;;;;;7.10;3.63;;;;;;;;;;5052780;28;20036;-55
2021/03/17 09:35:13;;;;;;;13.48;4.60;;;;;;;;;;5093841;28;20099;-55
2021/03/17 09:37:39;;;;;;;11.32;4.25;;;;;;;;;;5093845;28;20454;-55
2021/03/17 09:40:06;;;;;;;10.23;4.63;;;;;;;;;;5093915;28;20031;-55
2021/03/17 09:42:36;;;;;;;8.00;3.67;;;;;;;;;;5092443;28;20043;-55
2021/03/17 09:45:03;;;;;;;6.82;3.85;;;;;;;;;;5094298;28;20384;-55
2021/03/17 09:47:29;;;;;;;6.57;3.50;;;;;;;;;;5093295;28;20024;-55
2021/03/17 09:49:56;;;;;;;5.20;2.97;;;;;;;;;;5093632;28;20111;-55
2021/03/17 09:52:22;;;;;;;7.03;4.13;;;;;;;;;;5093741;28;20028;-55
2021/03/17 09:54:48;;;;;;;9.00;3.47;;;;;;;;;;5093756;28;20019;-55
2021/03/17 09:57:14;;;;;;;9.30;3.38;;;;;;;;;;5093271;28;20073;-55
2021/03/17 09:59:41;;;;;;;7.70;3.60;;;;;;;;;;5093652;28;20103;-55
2021/03/17 10:02:09;;;;;;;5.80;2.60;;;;;;;;;;5093289;28;20077;-55
2021/03/17 10:04:35;;;;;;;8.25;2.72;;;;;;;;;;5093484;28;20358;-55
2021/03/17 10:07:03;;;;;;;8.77;3.72;;;;;;;;;;5093235;28;20360;-55
2021/03/17 10:09:30;;;;;;;6.95;3.63;;;;;;;;;;5093425;28;20016;-55
2021/03/17 10:12:00;;;;;;;7.32;3.55;;;;;;;;;;5093551;28;20028;-54
2021/03/17 10:14:26;;;;;;;;;;;;;;;;;;5093647;28;20104;-55
2021/03/17 10:16:54;;;;;;;9.27;3.60;;;;;;;;;;5092143;28;19970;-55
2021/03/17 10:19:20;;;;;;;5.88;2.78;;;;;;;;;;5093290;28;20031;-54
2021/03/17 10:21:48;;;;;;;5.05;2.90;;;;;;;;;;5093257;28;20461;-55
2021/03/17 10:24:14;;;;;;;5.97;3.10;;;;;;;;;;5093250;28;20177;-55
2021/03/17 10:26:40;;;;;;;8.07;3.25;;;;;;;;;;5093406;28;20508;-54
2021/03/17 10:29:07;;;;;;;6.55;3.47;;;;;;;;;;5092812;28;20020;-55
2021/03/17 10:31:34;;;;;;;7.50;3.17;;;;;;;;;;5093277;28;20024;-55
2021/03/17 10:34:00;;;;;;;10.75;4.13;;;;;;;;;;5093187;28;20021;-55
2021/03/17 10:36:27;;;;;;;5.47;3.13;;;;;;;;;;5095367;28;20058;-55
2021/03/17 10:38:53;;;;;;;6.38;3.65;;;;;;;;;;5097235;28;20024;-55
2021/03/17 10:41:38;;;;;;;5.78;2.80;;;;;;;;;;5097187;28;20028;-55
2021/03/17 10:44:16;;;;;;;8.45;3.55;;;;;;;;;;5097221;28;20453;-55
2021/03/17 10:47:00;;;;;;;8.60;3.20;;;;;;;;;;5097252;28;20077;-55
2021/03/17 10:49:26;;;;;;;6.75;3.03;;;;;;;;;;5097215;28;20366;-54
2021/03/17 10:51:53;;;;;;;6.03;2.17;;;;;;;;;;5097100;28;20043;-54
2021/03/17 10:54:28;;;;;;;3.80;2.10;;;;;;;;;;5097014;28;20047;-54
2021/03/17 10:56:54;;;;;;;5.65;2.70;;;;;;;;;;5097225;28;20024;-55
2021/03/17 10:59:28;;;;;;;5.15;2.75;;;;;;;;;;5096912;28;20028;-55
2021/03/17 11:02:12;;;;;;;6.78;2.75;;;;;;;;;;5096644;28;20105;-55
2021/03/17 11:04:38;;;;;;;4.00;2.53;;;;;;;;;;5096591;28;20035;-54
2021/03/17 11:07:04;;;;;;;6.57;2.58;;;;;;;;;;5096854;28;20024;-54
2021/03/17 11:09:39;;;;;;;4.75;2.20;;;;;;;;;;5097006;28;20354;-55
2021/03/17 11:12:12;;;;;;;3.65;2.38;;;;;;;;;;5096751;28;20460;-54
2021/03/17 11:14:38;;;;;;;5.40;2.92;;;;;;;;;;5096877;28;20040;-55
2021/03/17 11:17:06;;;;;;;5.50;2.40;;;;;;;;;;5096085;28;20115;-54
2021/03/17 11:19:32;;;;;;;7.15;2.65;;;;;;;;;;5096579;28;20016;-55
2021/03/17 11:21:58;;;;;;;5.47;2.53;;;;;;;;;;5096448;28;20133;-55
2021/03/17 11:24:24;;;;;;;7.20;2.90;;;;;;;;;;5095322;28;20016;-55
2021/03/17 11:26:50;;;;;;;6.90;2.22;;;;;;;;;;5096269;28;20046;-55
2021/03/17 11:29:17;;;;;;;7.20;2.58;;;;;;;;;;5096013;28;20024;-55
2021/03/17 11:31:44;;;;;;;6.00;2.40;;;;;;;;;;5096439;28;20020;-55
2021/03/17 11:34:11;;;;;;;7.07;2.78;;;;;;;;;;5096777;28;20024;-55
2021/03/17 11:36:37;;;;;;;4.82;2.45;;;;;;;;;;5096316;28;20050;-55
2021/03/17 11:39:08;;;;;;;5.90;1.95;;;;;;;;;;5096207;28;20264;-55
2021/03/17 11:41:34;;;;;;;2.92;1.70;;;;;;;;;;5095879;28;20036;-55
2021/03/17 11:44:00;;;;;;;3.35;2.22;;;;;;;;;;5096115;28;20514;-55
2021/03/17 11:46:26;;;;;;;7.07;2.83;;;;;;;;;;5095600;28;20507;-55
2021/03/17 11:48:52;;;;;;;4.05;2.17;;;;;;;;;;5094619;28;20032;-55
2021/03/17 11:51:19;;;;;;;4.32;2.60;;;;;;;;;;5095938;28;20437;-54
2021/03/17 11:53:45;;;;;;;5.72;2.85;;;;;;;;;;5095927;28;20063;-55
2021/03/17 11:56:11;;;;;;;6.18;2.72;;;;;;;;;;5095676;28;20063;-55
2021/03/17 11:58:37;;;;;;;6.75;2.58;;;;;;;;;;5095785;28;20028;-55
2021/03/17 12:01:04;;;;;;;5.45;1.77;;;;;;;;;;5095964;28;20043;-55
2021/03/17 12:03:30;;;;;;;6.38;1.77;;;;;;;;;;5095738;28;20163;-54
2021/03/17 12:05:56;;;;;;;4.15;2.10;;;;;;;;;;5095735;28;20028;-55
2021/03/17 12:08:22;;;;;;;3.33;2.00;;;;;;;;;;5095499;28;20453;-55
2021/03/17 12:10:51;;;;;;;7.18;1.90;;;;;;;;;;5095393;28;20039;-54
2021/03/17 12:13:17;;;;;;;3.72;1.90;;;;;;;;;;5095505;28;20028;-55
2021/03/17 12:15:43;;;;;;;3.30;1.83;;;;;;;;;;5095453;28;20032;-55
2021/03/17 12:18:09;;;;;;;7.97;2.42;;;;;;;;;;5095462;28;20027;-54
2021/03/17 12:20:35;;;;;;;4.65;1.80;;;;;;;;;;5095515;28;20021;-55
2021/03/17 12:23:02;;;;;;;2.88;1.50;;;;;;;;;;5095283;28;20044;-54
2021/03/17 12:25:28;;;;;;;3.53;1.60;;;;;;;;;;5095175;28;20453;-54
2021/03/17 12:27:55;;;;;;;1.70;1.15;;;;;;;;;;5095232;28;20024;-55
2021/03/17 12:30:21;;;;;;;2.72;1.80;;;;;;;;;;5095489;28;20107;-55
2021/03/17 12:32:48;;;;;;;2.42;1.70;;;;;;;;;;5095032;28;20031;-54
2021/03/17 12:35:15;;;;;;;1.00;0.80;;;;;;;;;;5095180;28;20032;-55
2021/03/17 12:37:42;;;;;;;1.80;0.90;;;;;;;;;;5094770;28;20020;-54
2021/03/17 12:40:09;;;;;;;1.77;1.00;;;;;;;;;;5094947;28;20032;-54
2021/03/17 12:42:35;;;;;;;1.38;0.90;;;;;;;;;;5094926;28;20458;-55
2021/03/17 12:45:03;;;;;;;1.23;0.80;;;;;;;;;;5095210;28;20028;-55
2021/03/17 12:47:29;;;;;;;2.70;1.33;;;;;;;;;;5094528;28;20495;-55
2021/03/17 12:49:55;;;;;;;2.67;0.82;;;;;;;;;;5095496;28;20115;-55
2021/03/17 12:52:21;;;;;;;6.45;1.00;;;;;;;;;;5094471;28;20046;-55
2021/03/17 12:54:47;;;;;;;2.45;0.98;;;;;;;;;;5095079;28;20028;-55
2021/03/17 12:57:13;;;;;;;3.35;1.00;;;;;;;;;;5094694;28;20074;-55
2021/03/17 12:59:39;;;;;;;6.30;1.25;;;;;;;;;;5094075;28;20383;-54
2021/03/17 13:02:05;;;;;;;2.92;1.02;;;;;;;;;;5094675;28;20073;-54
2021/03/17 13:04:31;;;;;;;3.45;1.35;;;;;;;;;;5094744;28;20024;-55
2021/03/17 13:06:57;;;;;;;1.73;1.00;;;;;;;;;;5093952;28;20114;-55
2021/03/17 13:09:23;;;;;;;1.45;0.90;;;;;;;;;;5094352;28;20052;-55
2021/03/17 13:11:49;;;;;;;3.17;1.40;;;;;;;;;;5094487;28;20075;-54
2021/03/17 13:14:15;;;;;;;3.58;1.17;;;;;;;;;;5094477;28;20030;-55
2021/03/17 13:16:42;;;;;;;1.27;0.80;;;;;;;;;;5094264;28;20047;-54
2021/03/17 13:19:08;;;;;;;1.38;0.90;;;;;;;;;;5094233;28;20024;-55
2021/03/17 13:21:35;;;;;;;1.85;1.10;;;;;;;;;;5094116;28;20032;-55
2021/03/17 13:24:01;;;;;;;1.40;1.02;;;;;;;;;;5094188;28;20445;-55
2021/03/17 13:26:27;;;;;;;5.53;1.17;;;;;;;;;;5094070;28;20468;-55
2021/03/17 13:28:53;;;;;;;2.15;0.85;;;;;;;;;;5094004;28;20055;-54
2021/03/17 13:31:19;;;;;;;1.55;1.17;;;;;;;;;;5094181;28;20024;-54
2021/03/17 13:33:47;;;;;;;1.00;0.90;;;;;;;;;;5094116;28;20043;-54
2021/03/17 13:36:13;;;;;;;0.90;0.85;;;;;;;;;;5093892;28;20032;-54
2021/03/17 13:38:40;;;;;;;5.65;2.17;;;;;;;;;;5093678;28;20099;-54
2021/03/17 13:41:06;;;;;;;1.58;0.95;;;;;;;;;;5094000;28;20058;-54
2021/03/17 13:43:32;;;;;;;0.95;0.90;;;;;;;;;;5093720;28;20116;-54
2021/03/17 13:45:58;;;;;;;4.45;1.30;;;;;;;;;;5094059;28;20031;-54
2021/03/17 13:48:24;;;;;;;1.85;1.17;;;;;;;;;;5093358;28;20104;-54
2021/03/17 13:50:50;;;;;;;2.10;1.08;;;;;;;;;;5093639;28;20020;-54
2021/03/17 13:53:16;;;;;;;3.00;1.00;;;;;;;;;;5093716;28;20020;-54
2021/03/17 13:55:42;;;;;;;1.35;1.00;;;;;;;;;;5094058;28;20062;-54
2021/03/17 13:58:08;;;;;;;3.25;1.25;;;;;;;;;;5093249;28;20058;-54
2021/03/17 14:00:34;;;;;;;1.35;1.05;;;;;;;;;;5093797;28;20024;-54
2021/03/17 14:03:00;;;;;;;1.02;0.93;;;;;;;;;;5093503;28;20028;-54
2021/03/17 14:05:27;;;;;;;1.17;0.88;;;;;;;;;;5093137;28;20020;-54
2021/03/17 14:07:53;;;;;;;1.23;0.98;;;;;;;;;;5093403;28;20027;-54
2021/03/17 14:10:24;;;;;;;0.85;0.70;;;;;;;;;;5093740;28;20028;-54
2021/03/17 14:12:50;;;;;;;1.25;1.08;;;;;;;;;;5093395;28;20020;-54
2021/03/17 14:15:18;;;;;;;1.67;1.10;;;;;;;;;;5093561;28;20080;-54
2021/03/17 14:17:44;;;;;;;1.42;1.30;;;;;;;;;;5092978;28;20032;-54
2021/03/17 14:20:12;;;;;;;4.30;1.08;;;;;;;;;;5092948;28;20028;-54
2021/03/17 14:22:38;;;;;;;1.33;0.88;;;;;;;;;;5093264;28;20058;-54
2021/03/17 14:25:05;;;;;;;6.00;1.10;;;;;;;;;;5093300;28;20456;-55
2021/03/17 14:27:31;;;;;;;6.07;1.38;;;;;;;;;;5093008;28;20035;-54
2021/03/17 14:29:57;;;;;;;2.47;1.00;;;;;;;;;;5093673;28;20012;-55
2021/03/17 14:32:23;;;;;;;2.88;1.30;;;;;;;;;;5093141;28;20113;-54
2021/03/17 14:34:50;;;;;;;2.47;1.23;;;;;;;;;;5093039;28;20031;-54
2021/03/17 14:37:16;;;;;;;2.35;1.15;;;;;;;;;;5093054;28;20031;-54
2021/03/17 14:39:42;;;;;;;2.38;1.48;;;;;;;;;;5093560;28;20024;-54
2021/03/17 14:42:08;;;;;;;1.73;1.20;;;;;;;;;;5092776;28;20145;-54
2021/03/17 14:44:35;;;;;;;2.30;1.30;;;;;;;;;;5093199;28;20028;-54
2021/03/17 14:47:01;;;;;;;3.55;1.35;;;;;;;;;;5092115;28;20062;-54